createdAt,value
2018-05-11T00:01:10.719Z,41.40
2018-05-11T00:03:38.180Z,41.30
2018-05-11T00:06:06.448Z,41.40
2018-05-11T00:08:33.912Z,41.50
2018-05-11T00:11:01.414Z,41.50
2018-05-11T00:13:28.898Z,41.50
2018-05-11T00:15:57.164Z,41.70
2018-05-11T00:18:24.662Z,41.70
2018-05-11T00:20:52.183Z,41.80
2018-05-11T00:23:19.709Z,41.90
2018-05-11T00:25:47.952Z,42.00
2018-05-11T00:28:15.416Z,42.00
2018-05-11T00:30:42.933Z,42.00
2018-05-11T00:33:10.413Z,42.10
2018-05-11T00:35:37.910Z,42.20
2018-05-11T00:38:05.404Z,42.20
2018-05-11T00:40:32.896Z,42.20
2018-05-11T00:43:01.144Z,42.40
2018-05-11T00:45:28.641Z,42.50
2018-05-11T00:47:56.124Z,42.40
2018-05-11T00:50:23.664Z,42.50
2018-05-11T00:52:51.378Z,42.60
2018-05-11T00:55:31.657Z,42.80
2018-05-11T00:57:59.207Z,42.90
2018-05-11T01:00:26.725Z,42.70
2018-05-11T01:02:54.236Z,42.80
2018-05-11T01:05:21.828Z,42.90
2018-05-11T01:07:49.312Z,42.90
2018-05-11T01:10:17.551Z,43.70
2018-05-11T01:12:45.050Z,43.10
2018-05-11T01:15:12.520Z,43.00
2018-05-11T01:17:40.014Z,43.20
2018-05-11T01:20:08.247Z,43.30
2018-05-11T01:22:35.745Z,43.30
2018-05-11T01:25:03.333Z,43.30
2018-05-11T01:27:30.843Z,43.30
2018-05-11T01:29:58.400Z,43.30
2018-05-11T01:32:25.910Z,43.40
2018-05-11T01:34:53.390Z,43.40
2018-05-11T01:37:20.915Z,43.50
2018-05-11T01:39:48.425Z,43.50
2018-05-11T01:42:16.639Z,43.50
2018-05-11T01:44:44.104Z,43.60
2018-05-11T01:47:11.602Z,43.60
2018-05-11T01:49:39.076Z,43.50
2018-05-11T01:52:06.568Z,43.60
2018-05-11T01:54:34.032Z,43.60
2018-05-11T01:57:04.219Z,43.70
2018-05-11T01:59:31.912Z,43.80
2018-05-11T02:01:59.417Z,43.80
2018-05-11T02:04:27.684Z,43.80
2018-05-11T02:06:55.175Z,43.90
2018-05-11T02:09:23.422Z,44.00
2018-05-11T02:11:51.088Z,44.10
2018-05-11T02:14:18.571Z,44.00
2018-05-11T02:16:46.063Z,44.10
2018-05-11T02:19:13.631Z,44.10
2018-05-11T02:21:42.641Z,44.40
2018-05-11T02:24:10.416Z,44.50
2018-05-11T02:26:37.929Z,44.30
2018-05-11T02:29:05.556Z,44.30
2018-05-11T02:31:33.069Z,44.30
2018-05-11T02:34:00.533Z,44.40
2018-05-11T02:36:28.797Z,44.50
2018-05-11T02:38:56.288Z,44.50
2018-05-11T02:41:24.554Z,44.50
2018-05-11T02:43:52.224Z,44.60
2018-05-11T02:46:19.722Z,44.50
2018-05-11T02:48:47.962Z,44.50
2018-05-11T02:51:15.474Z,44.50
2018-05-11T02:53:42.945Z,44.50
2018-05-11T02:56:12.140Z,44.50
2018-05-11T02:58:39.623Z,44.50
2018-05-11T03:01:07.112Z,44.40
2018-05-11T03:03:35.348Z,44.50
2018-05-11T03:06:02.806Z,44.50
2018-05-11T03:08:30.316Z,44.50
2018-05-11T03:10:58.036Z,44.40
2018-05-11T03:13:25.521Z,44.40
2018-05-11T03:15:53.011Z,44.50
2018-05-11T03:18:20.540Z,44.40
2018-05-11T03:20:48.004Z,44.50
2018-05-11T03:23:15.491Z,44.50
2018-05-11T03:25:42.965Z,44.50
2018-05-11T03:28:10.470Z,44.60
2018-05-11T03:30:38.721Z,44.50
2018-05-11T03:33:06.227Z,44.70
2018-05-11T03:35:33.731Z,44.60
2018-05-11T03:38:01.225Z,44.60
2018-05-11T03:40:29.489Z,44.70
2018-05-11T03:42:56.997Z,44.70
2018-05-11T03:45:24.479Z,44.70
2018-05-11T03:47:52.055Z,44.60
2018-05-11T03:50:19.545Z,44.70
2018-05-11T03:52:47.142Z,44.70
2018-05-11T03:55:14.738Z,44.80
2018-05-11T03:57:43.001Z,45.00
2018-05-11T04:00:10.470Z,45.50
2018-05-11T04:02:49.825Z,44.90
2018-05-11T04:05:29.252Z,45.00
2018-05-11T04:08:09.609Z,45.00
2018-05-11T04:10:37.098Z,45.10
2018-05-11T04:13:04.587Z,45.10
2018-05-11T04:15:32.140Z,45.20
2018-05-11T04:17:59.652Z,45.20
2018-05-11T04:20:27.119Z,45.20
2018-05-11T04:22:54.613Z,45.20
2018-05-11T04:25:22.107Z,45.30
2018-05-11T04:27:49.609Z,45.30
2018-05-11T04:30:17.122Z,45.40
2018-05-11T04:32:44.586Z,45.40
2018-05-11T04:35:12.916Z,45.50
2018-05-11T04:37:40.414Z,45.60
2018-05-11T04:40:07.889Z,45.50
2018-05-11T04:42:35.406Z,45.60
2018-05-11T04:45:02.955Z,45.70
2018-05-11T04:47:31.239Z,45.90
2018-05-11T04:49:58.934Z,45.90
2018-05-11T04:52:26.551Z,45.90
2018-05-11T04:54:54.161Z,46.00
2018-05-11T04:57:21.659Z,46.00
2018-05-11T04:59:49.179Z,46.10
2018-05-11T05:02:16.669Z,46.10
2018-05-11T05:04:44.152Z,46.20
2018-05-11T05:07:11.675Z,46.30
2018-05-11T05:09:39.170Z,46.40
2018-05-11T05:12:06.660Z,46.40
2018-05-11T05:14:34.225Z,46.50
2018-05-11T05:17:01.687Z,46.40
2018-05-11T05:19:29.254Z,46.50
2018-05-11T05:21:56.858Z,46.50
2018-05-11T05:24:24.415Z,46.50
2018-05-11T05:26:51.943Z,46.50
2018-05-11T05:29:19.439Z,46.60
2018-05-11T05:31:46.904Z,46.70
2018-05-11T05:34:14.489Z,46.80
2018-05-11T05:36:42.003Z,46.70
2018-05-11T05:39:11.268Z,46.80
2018-05-11T05:41:38.823Z,46.80
2018-05-11T05:44:06.320Z,46.80
2018-05-11T05:46:33.785Z,46.70
2018-05-11T05:49:01.336Z,46.70
2018-05-11T05:51:28.944Z,46.60
2018-05-11T05:53:56.424Z,46.50
2018-05-11T05:56:23.905Z,46.50
2018-05-11T05:58:51.512Z,46.50
2018-05-11T06:01:18.989Z,46.40
2018-05-11T06:03:46.479Z,46.40
2018-05-11T06:06:14.052Z,46.50
2018-05-11T06:08:41.557Z,46.50
2018-05-11T06:11:09.120Z,46.60
2018-05-11T06:13:36.611Z,46.60
2018-05-11T06:16:04.841Z,46.60
2018-05-11T06:18:32.364Z,46.60
2018-05-11T06:20:59.841Z,46.50
2018-05-11T06:23:28.116Z,46.30
2018-05-11T06:25:55.710Z,46.30
2018-05-11T06:28:23.989Z,46.40
2018-05-11T06:30:52.990Z,46.00
2018-05-11T06:33:21.269Z,46.00
2018-05-11T06:35:48.741Z,45.90
2018-05-11T06:38:16.223Z,46.00
2018-05-11T06:40:43.707Z,45.90
2018-05-11T06:43:11.976Z,46.00
2018-05-11T06:45:40.268Z,46.10
2018-05-11T06:48:07.756Z,46.10
2018-05-11T06:50:36.053Z,45.90
2018-05-11T06:53:04.304Z,45.90
2018-05-11T06:55:31.805Z,45.80
2018-05-11T06:57:59.320Z,45.80
2018-05-11T07:00:26.788Z,45.80
2018-05-11T07:02:54.448Z,45.80
2018-05-11T07:05:21.955Z,45.90
2018-05-11T07:07:49.568Z,46.00
2018-05-11T07:10:17.737Z,46.00
2018-05-11T07:12:45.209Z,45.90
2018-05-11T07:15:12.717Z,46.00
2018-05-11T07:17:40.172Z,46.30
2018-05-11T07:20:08.531Z,46.40
2018-05-11T07:22:36.001Z,46.30
2018-05-11T07:25:03.494Z,46.50
2018-05-11T07:27:30.956Z,46.40
2018-05-11T07:29:58.476Z,46.40
2018-05-11T07:32:26.007Z,46.60
2018-05-11T07:34:53.620Z,46.80
2018-05-11T07:37:21.839Z,47.70
2018-05-11T07:39:49.332Z,47.60
2018-05-11T07:42:16.816Z,47.60
2018-05-11T07:44:45.064Z,48.20
2018-05-11T07:47:12.559Z,47.60
2018-05-11T07:49:40.061Z,47.80
2018-05-11T07:52:08.315Z,47.50
2018-05-11T07:54:35.800Z,47.40
2018-05-11T07:57:03.300Z,47.20
2018-05-11T07:59:31.560Z,46.40
2018-05-11T08:01:59.118Z,46.30
2018-05-11T08:04:26.612Z,46.10
2018-05-11T08:06:54.076Z,45.90
2018-05-11T08:09:21.638Z,45.50
2018-05-11T08:11:49.115Z,45.40
2018-05-11T08:14:16.660Z,45.00
2018-05-11T08:16:44.113Z,44.60
2018-05-11T08:19:11.605Z,44.50
2018-05-11T08:21:39.100Z,44.10
2018-05-11T08:24:06.596Z,43.90
2018-05-11T08:26:34.984Z,43.10
2018-05-11T08:29:02.457Z,42.90
2018-05-11T08:31:30.717Z,43.00
2018-05-11T08:33:58.205Z,42.80
2018-05-11T08:36:25.685Z,42.80
2018-05-11T08:38:53.184Z,42.60
2018-05-11T08:41:20.844Z,42.20
2018-05-11T08:43:49.152Z,41.20
2018-05-11T08:46:16.615Z,41.10
2018-05-11T08:48:44.105Z,40.90
2018-05-11T08:51:11.580Z,40.70
2018-05-11T08:53:39.069Z,40.20
2018-05-11T08:56:06.536Z,39.80
2018-05-11T08:58:34.114Z,39.40
2018-05-11T09:01:01.613Z,38.80
2018-05-11T09:03:29.100Z,38.30
2018-05-11T09:05:57.339Z,37.10
2018-05-11T09:08:24.893Z,36.90
2018-05-11T09:10:52.519Z,36.80
2018-05-11T09:13:20.006Z,36.50
2018-05-11T09:15:48.277Z,35.60
2018-05-11T09:18:16.548Z,35.40
2018-05-11T09:20:44.025Z,35.00
2018-05-11T09:23:11.509Z,34.70
2018-05-11T09:25:38.992Z,34.10
2018-05-11T09:28:07.261Z,33.00
2018-05-11T09:30:34.878Z,32.80
2018-05-11T09:33:02.363Z,32.50
2018-05-11T09:35:29.862Z,32.30
2018-05-11T09:37:57.367Z,31.80
2018-05-11T09:40:24.881Z,31.30
2018-05-11T09:42:52.421Z,31.20
2018-05-11T09:45:19.926Z,30.90
2018-05-11T09:47:47.416Z,30.80
2018-05-11T09:50:14.929Z,30.30
2018-05-11T09:52:43.176Z,29.30
2018-05-11T09:55:10.673Z,29.10
2018-05-11T09:57:38.170Z,29.20
2018-05-11T10:00:06.422Z,28.70
2018-05-11T10:02:34.057Z,28.50
2018-05-11T10:05:01.556Z,28.40
2018-05-11T10:07:29.030Z,27.90
2018-05-11T10:09:57.291Z,27.00
2018-05-11T10:12:24.777Z,26.90
2018-05-11T10:14:52.308Z,26.80
2018-05-11T10:17:20.592Z,26.50
2018-05-11T10:19:48.842Z,26.10
2018-05-11T10:22:16.307Z,25.80
2018-05-11T10:24:43.807Z,25.20
2018-05-11T10:27:11.272Z,25.10
2018-05-11T10:29:38.812Z,25.30
2018-05-11T10:32:06.282Z,25.40
2018-05-11T10:34:33.805Z,24.90
2018-05-11T10:37:01.256Z,24.80
2018-05-11T10:39:28.744Z,24.20
2018-05-11T10:41:56.221Z,23.60
2018-05-11T10:44:23.725Z,23.20
2018-05-11T10:46:51.246Z,23.10
2018-05-11T10:49:19.543Z,23.30
2018-05-11T10:51:47.037Z,23.10
2018-05-11T10:54:14.542Z,22.80
2018-05-11T10:56:42.012Z,22.80
2018-05-11T10:59:09.580Z,22.50
2018-05-11T11:01:37.069Z,22.30
2018-05-11T11:04:04.530Z,22.10
2018-05-11T11:06:32.019Z,22.90
2018-05-11T11:08:59.502Z,22.70
2018-05-11T11:11:26.995Z,22.60
2018-05-11T11:13:55.465Z,22.20
2018-05-11T11:16:23.047Z,22.10
2018-05-11T11:18:50.549Z,22.20
2018-05-11T11:21:18.811Z,22.10
2018-05-11T11:23:47.085Z,22.50
2018-05-11T11:26:14.579Z,22.40
2018-05-11T11:28:42.823Z,22.70
2018-05-11T11:31:10.406Z,22.50
2018-05-11T11:33:37.873Z,22.70
2018-05-11T11:36:05.355Z,23.00
2018-05-11T11:38:32.820Z,23.50
2018-05-11T11:41:00.300Z,23.20
2018-05-11T11:43:27.771Z,22.70
2018-05-11T11:45:55.277Z,22.30
2018-05-11T11:48:22.772Z,22.00
2018-05-11T11:50:50.296Z,21.90
2018-05-11T11:53:18.549Z,22.30
2018-05-11T11:55:46.038Z,22.20
2018-05-11T11:58:13.512Z,22.60
2018-05-11T12:00:41.060Z,22.50
2018-05-11T12:03:08.605Z,22.70
2018-05-11T12:05:36.108Z,22.70
2018-05-11T12:08:04.352Z,22.30
2018-05-11T12:10:32.607Z,22.00
2018-05-11T12:13:00.079Z,21.90
2018-05-11T12:15:27.589Z,21.60
2018-05-11T12:17:55.116Z,21.30
2018-05-11T12:20:22.630Z,21.10
2018-05-11T12:22:50.867Z,21.50
2018-05-11T12:25:18.364Z,21.40
2018-05-11T12:27:46.364Z,21.50
2018-05-11T12:30:14.676Z,21.50
2018-05-11T12:32:42.150Z,21.40
2018-05-11T12:35:09.644Z,21.50
2018-05-11T12:37:37.112Z,21.40
2018-05-11T12:40:04.604Z,21.60
2018-05-11T12:42:32.085Z,21.60
2018-05-11T12:44:59.605Z,21.50
2018-05-11T12:47:27.160Z,21.30
2018-05-11T12:49:55.433Z,21.00
2018-05-11T12:52:22.928Z,20.90
2018-05-11T12:54:50.476Z,20.90
2018-05-11T12:57:18.783Z,20.80
2018-05-11T12:59:47.036Z,21.00
2018-05-11T13:02:14.648Z,20.90
2018-05-11T13:04:42.896Z,21.70
2018-05-11T13:07:10.395Z,22.10
2018-05-11T13:09:37.859Z,22.00
2018-05-11T13:12:05.346Z,21.90
2018-05-11T13:14:33.597Z,21.50
2018-05-11T13:17:01.100Z,21.40
2018-05-11T13:19:29.671Z,20.90
2018-05-11T13:21:57.195Z,20.90
2018-05-11T13:24:24.668Z,20.90
2018-05-11T13:26:52.196Z,21.10
2018-05-11T13:29:19.680Z,21.20
2018-05-11T13:31:47.955Z,21.70
2018-05-11T13:34:15.478Z,21.70
2018-05-11T13:36:42.916Z,21.80
2018-05-11T13:39:11.157Z,21.60
2018-05-11T13:41:38.643Z,21.50
2018-05-11T13:44:06.107Z,21.50
2018-05-11T13:46:33.612Z,21.40
2018-05-11T13:49:01.080Z,21.40
2018-05-11T13:51:28.574Z,21.40
2018-05-11T13:53:56.160Z,21.50
2018-05-11T13:56:23.739Z,21.70
2018-05-11T13:58:51.152Z,21.70
2018-05-11T14:01:18.659Z,22.30
2018-05-11T14:03:46.146Z,21.90
2018-05-11T14:06:13.625Z,21.90
2018-05-11T14:08:41.089Z,21.90
2018-05-11T14:11:08.571Z,22.00
2018-05-11T14:13:36.048Z,22.20
2018-05-11T14:16:04.016Z,22.80
2018-05-11T14:18:31.499Z,23.30
2018-05-11T14:20:58.980Z,23.80
2018-05-11T14:23:26.487Z,24.30
2018-05-11T14:25:53.973Z,24.30
2018-05-11T14:28:22.250Z,23.50
2018-05-11T14:30:50.515Z,22.40
2018-05-11T14:33:18.049Z,22.40
2018-05-11T14:35:45.520Z,21.60
2018-05-11T14:38:13.010Z,20.90
2018-05-11T14:40:40.472Z,20.30
2018-05-11T14:43:07.976Z,20.10
2018-05-11T14:45:35.451Z,19.90
2018-05-11T14:48:02.944Z,19.80
2018-05-11T14:50:31.184Z,20.40
2018-05-11T14:52:58.680Z,20.00
2018-05-11T14:55:26.185Z,20.20
2018-05-11T14:57:54.472Z,20.50
2018-05-11T15:00:22.712Z,20.60
2018-05-11T15:02:50.243Z,20.60
2018-05-11T15:05:18.481Z,20.80
2018-05-11T15:07:46.023Z,20.70
2018-05-11T15:10:13.548Z,20.90
2018-05-11T15:12:40.997Z,21.00
2018-05-11T15:15:08.482Z,21.10
2018-05-11T15:17:36.097Z,21.20
2018-05-11T15:20:04.339Z,21.70
2018-05-11T15:22:31.827Z,21.60
2018-05-11T15:24:59.306Z,21.90
2018-05-11T15:27:26.914Z,22.10
2018-05-11T15:29:54.431Z,22.30
2018-05-11T15:32:21.916Z,22.60
2018-05-11T15:34:49.420Z,22.70
2018-05-11T15:37:16.889Z,22.80
2018-05-11T15:39:44.377Z,22.80
2018-05-11T15:42:11.872Z,22.60
2018-05-11T15:44:39.365Z,22.50
2018-05-11T15:47:06.835Z,22.10
2018-05-11T15:49:34.326Z,21.80
2018-05-11T15:52:02.566Z,21.10
2018-05-11T15:54:30.059Z,21.00
2018-05-11T15:56:57.694Z,20.80
2018-05-11T15:59:25.230Z,20.60
2018-05-11T16:01:52.736Z,20.50
2018-05-11T16:04:20.273Z,20.60
2018-05-11T16:06:48.510Z,20.80
2018-05-11T16:09:15.999Z,20.70
2018-05-11T16:11:43.476Z,21.00
2018-05-11T16:14:10.961Z,21.10
2018-05-11T16:16:38.563Z,21.10
2018-05-11T16:19:06.812Z,21.30
2018-05-11T16:21:34.283Z,21.30
2018-05-11T16:24:01.764Z,21.90
2018-05-11T16:26:29.223Z,21.50
2018-05-11T16:28:56.812Z,21.60
2018-05-11T16:31:24.298Z,21.70
2018-05-11T16:33:52.592Z,22.00
2018-05-11T16:36:20.887Z,22.00
2018-05-11T16:38:48.379Z,22.00
2018-05-11T16:41:15.843Z,22.10
2018-05-11T16:43:43.316Z,22.10
2018-05-11T16:46:10.801Z,22.20
2018-05-11T16:48:38.310Z,22.30
2018-05-11T16:51:05.852Z,22.40
2018-05-11T16:53:33.297Z,22.50
2018-05-11T16:56:00.823Z,22.70
2018-05-11T16:58:28.319Z,22.80
2018-05-11T17:00:56.569Z,23.00
2018-05-11T17:03:24.105Z,22.90
2018-05-11T17:05:51.570Z,23.00
2018-05-11T17:08:19.163Z,23.00
2018-05-11T17:10:46.649Z,23.10
2018-05-11T17:13:14.140Z,23.20
2018-05-11T17:15:41.634Z,23.30
2018-05-11T17:18:10.997Z,23.50
2018-05-11T17:20:38.544Z,23.50
2018-05-11T17:23:06.012Z,23.60
2018-05-11T17:25:34.288Z,23.80
2018-05-11T17:28:02.244Z,23.80
2018-05-11T17:30:29.767Z,23.80
2018-05-11T17:32:58.617Z,23.90
2018-05-11T17:35:26.121Z,23.90
2018-05-11T17:37:54.373Z,24.00
2018-05-11T17:40:21.993Z,24.00
2018-05-11T17:42:49.859Z,24.10
2018-05-11T17:45:18.287Z,24.20
2018-05-11T17:47:45.767Z,24.20
2018-05-11T17:50:13.260Z,24.20
2018-05-11T17:52:40.740Z,24.30
2018-05-11T17:55:08.240Z,24.30
2018-05-11T17:57:35.708Z,24.40
2018-05-11T18:00:03.199Z,24.50
2018-05-11T18:02:31.448Z,24.60
2018-05-11T18:04:58.941Z,24.70
2018-05-11T18:07:26.424Z,24.70
2018-05-11T18:09:54.698Z,25.00
2018-05-11T18:12:22.366Z,25.00
2018-05-11T18:14:49.805Z,25.00
2018-05-11T18:17:17.324Z,25.10
2018-05-11T18:19:45.575Z,25.30
2018-05-11T18:22:13.036Z,25.30
2018-05-11T18:24:40.524Z,25.40
2018-05-11T18:27:07.993Z,25.50
2018-05-11T18:29:35.476Z,25.60
2018-05-11T18:32:02.948Z,25.70
2018-05-11T18:34:30.529Z,25.90
2018-05-11T18:36:58.004Z,25.90
2018-05-11T18:39:25.495Z,26.00
2018-05-11T18:41:52.960Z,26.10
2018-05-11T18:44:20.466Z,26.20
2018-05-11T18:46:48.002Z,26.30
2018-05-11T18:49:15.444Z,26.40
2018-05-11T18:51:44.472Z,26.60
2018-05-11T18:54:13.076Z,26.70
2018-05-11T18:56:40.292Z,26.70
2018-05-11T18:59:07.780Z,27.00
2018-05-11T19:01:35.321Z,26.80
2018-05-11T19:04:02.737Z,27.00
2018-05-11T19:06:30.200Z,27.10
2018-05-11T19:08:57.765Z,27.20
2018-05-11T19:11:25.216Z,27.20
2018-05-11T19:13:52.715Z,27.30
2018-05-11T19:16:20.183Z,27.90
2018-05-11T19:18:47.676Z,27.50
2018-05-11T19:21:15.903Z,27.60
2018-05-11T19:23:43.376Z,27.60
2018-05-11T19:26:10.938Z,27.70
2018-05-11T19:28:38.456Z,27.80
2018-05-11T19:31:05.940Z,27.90
2018-05-11T19:33:33.430Z,27.90
2018-05-11T19:36:01.696Z,28.10
2018-05-11T19:38:29.189Z,28.10
2018-05-11T19:40:57.461Z,28.30
2018-05-11T19:43:25.028Z,28.30
2018-05-11T19:45:52.576Z,28.30
2018-05-11T19:48:20.672Z,28.40
2018-05-11T19:50:48.160Z,28.40
2018-05-11T19:53:15.639Z,28.50
2018-05-11T19:55:43.195Z,28.80
2018-05-11T19:58:10.656Z,28.70
2018-05-11T20:00:38.163Z,28.70
2018-05-11T20:03:06.403Z,28.90
2018-05-11T20:05:33.896Z,29.00
2018-05-11T20:08:02.140Z,29.00
2018-05-11T20:10:29.662Z,29.00
2018-05-11T20:12:57.186Z,29.10
2018-05-11T20:15:24.696Z,29.20
2018-05-11T20:17:52.220Z,29.20
2018-05-11T20:20:19.929Z,29.30
2018-05-11T20:22:47.427Z,29.30
2018-05-11T20:25:14.921Z,29.40
2018-05-11T20:27:43.188Z,29.60
2018-05-11T20:30:10.670Z,29.60
2018-05-11T20:32:39.143Z,29.70
2018-05-11T20:35:06.727Z,29.80
2018-05-11T20:37:34.952Z,29.80
2018-05-11T20:40:02.495Z,29.90
2018-05-11T20:42:30.724Z,30.00
2018-05-11T20:44:58.219Z,30.00
2018-05-11T20:47:25.705Z,30.00
2018-05-11T20:49:53.248Z,30.10
2018-05-11T20:52:20.819Z,30.20
2018-05-11T20:54:48.347Z,30.20
2018-05-11T20:57:16.641Z,30.40
2018-05-11T20:59:44.148Z,30.50
2018-05-11T21:02:11.612Z,30.50
2018-05-11T21:04:39.104Z,30.60
2018-05-11T21:07:06.584Z,30.70
2018-05-11T21:09:34.077Z,30.90
2018-05-11T21:12:01.575Z,31.00
2018-05-11T21:14:29.830Z,31.20
2018-05-11T21:16:58.075Z,31.30
2018-05-11T21:19:25.600Z,31.40
2018-05-11T21:21:53.210Z,31.30
2018-05-11T21:24:20.681Z,31.40
2018-05-11T21:26:48.223Z,31.40
2018-05-11T21:29:16.529Z,31.50
2018-05-11T21:31:44.792Z,31.50
2018-05-11T21:34:12.255Z,31.60
2018-05-11T21:36:41.289Z,31.70
2018-05-11T21:39:09.509Z,31.60
2018-05-11T21:41:37.018Z,31.70
2018-05-11T21:44:04.488Z,31.70
2018-05-11T21:46:31.963Z,31.80
2018-05-11T21:48:59.532Z,31.90
2018-05-11T21:51:27.038Z,31.90
2018-05-11T21:53:55.292Z,32.10
2018-05-11T21:56:22.792Z,32.10
2018-05-11T21:58:51.040Z,32.30
2018-05-11T22:01:18.560Z,32.40
2018-05-11T22:03:46.028Z,32.30
2018-05-11T22:06:14.289Z,32.50
2018-05-11T22:08:41.779Z,32.60
2018-05-11T22:11:10.028Z,32.70
2018-05-11T22:13:37.554Z,32.70
2018-05-11T22:16:05.008Z,32.80
2018-05-11T22:18:32.477Z,32.80
2018-05-11T22:21:00.093Z,33.00
2018-05-11T22:23:27.721Z,33.00
2018-05-11T22:25:55.232Z,33.10
2018-05-11T22:28:22.751Z,32.90
2018-05-11T22:30:51.067Z,33.30
2018-05-11T22:33:18.559Z,33.40
2018-05-11T22:35:46.054Z,33.40
2018-05-11T22:38:13.542Z,33.50
2018-05-11T22:40:41.126Z,33.50
2018-05-11T22:43:08.596Z,33.60
2018-05-11T22:45:36.854Z,33.70
2018-05-11T22:48:04.336Z,33.80
2018-05-11T22:50:31.812Z,33.80
2018-05-11T22:52:59.273Z,33.90
2018-05-11T22:55:26.764Z,33.90
2018-05-11T22:57:54.248Z,34.00
2018-05-11T23:00:27.447Z,34.10
2018-05-11T23:02:54.930Z,34.10
2018-05-11T23:05:22.448Z,34.20
2018-05-11T23:07:49.933Z,34.30
2018-05-11T23:10:17.481Z,34.40
2018-05-11T23:12:44.960Z,34.50
2018-05-11T23:15:12.464Z,34.50
2018-05-11T23:17:39.935Z,34.50
2018-05-11T23:20:07.423Z,34.60
2018-05-11T23:22:36.422Z,34.80
2018-05-11T23:25:04.076Z,34.90
2018-05-11T23:27:31.580Z,34.50
2018-05-11T23:29:59.046Z,34.90
2018-05-11T23:32:26.583Z,35.00
2018-05-11T23:34:54.072Z,35.00
2018-05-11T23:37:21.604Z,35.00
2018-05-11T23:39:49.112Z,35.00
2018-05-11T23:42:16.592Z,34.90
2018-05-11T23:44:44.051Z,34.90
2018-05-11T23:47:11.613Z,35.00
2018-05-11T23:49:39.115Z,35.00
2018-05-11T23:52:06.567Z,35.00
2018-05-11T23:54:34.040Z,35.10
2018-05-11T23:57:01.528Z,35.20
2018-05-11T23:59:29.764Z,35.90
